sensor_id;sensor_type;location;lat;lon;timestamp;P1;durP1;ratioP1;P2;durP2;ratioP2
14520;SDS011;7347;50.844;4.490;2023-04-05T06:49:52;5.37;;;2.60;;
14520;SDS011;7347;50.844;4.490;2023-04-05T06:52:19;6.17;;;3.10;;
14520;SDS011;7347;50.844;4.490;2023-04-05T06:54:46;7.53;;;3.93;;
14520;SDS011;7347;50.844;4.490;2023-04-05T06:57:13;6.07;;;3.43;;
14520;SDS011;7347;50.844;4.490;2023-04-05T06:59:39;9.03;;;3.20;;
14520;SDS011;7347;50.844;4.490;2023-04-05T07:02:06;5.43;;;3.30;;
14520;SDS011;7347;50.844;4.490;2023-04-05T07:04:33;7.20;;;3.47;;
14520;SDS011;7347;50.844;4.490;2023-04-05T07:07:02;5.53;;;3.63;;
14520;SDS011;7347;50.844;4.490;2023-04-05T07:09:30;7.55;;;3.50;;
14520;SDS011;7347;50.844;4.490;2023-04-05T07:11:57;10.00;;;4.32;;
14520;SDS011;7347;50.844;4.490;2023-04-05T07:14:25;7.22;;;4.18;;
14520;SDS011;7347;50.844;4.490;2023-04-05T07:16:52;9.15;;;4.60;;
14520;SDS011;7347;50.844;4.490;2023-04-05T07:19:19;10.30;;;5.55;;
14520;SDS011;7347;50.844;4.490;2023-04-05T07:21:45;8.07;;;4.20;;
14520;SDS011;7347;50.844;4.490;2023-04-05T07:24:14;9.38;;;4.82;;
14520;SDS011;7347;50.844;4.490;2023-04-05T07:26:41;8.55;;;4.30;;
14520;SDS011;7347;50.844;4.490;2023-04-05T07:29:08;13.15;;;5.35;;
14520;SDS011;7347;50.844;4.490;2023-04-05T07:31:35;9.48;;;4.97;;
14520;SDS011;7347;50.844;4.490;2023-04-05T07:34:03;6.68;;;4.15;;
14520;SDS011;7347;50.844;4.490;2023-04-05T07:36:30;6.95;;;3.55;;
14520;SDS011;7347;50.844;4.490;2023-04-05T07:38:57;10.23;;;5.00;;
14520;SDS011;7347;50.844;4.490;2023-04-05T07:41:26;10.90;;;4.30;;
14520;SDS011;7347;50.844;4.490;2023-04-05T07:43:55;7.32;;;4.32;;
14520;SDS011;7347;50.844;4.490;2023-04-05T07:46:22;6.50;;;3.70;;
14520;SDS011;7347;50.844;4.490;2023-04-05T07:48:51;6.53;;;3.22;;
14520;SDS011;7347;50.844;4.490;2023-04-05T07:51:18;7.45;;;4.47;;
14520;SDS011;7347;50.844;4.490;2023-04-05T07:53:45;5.55;;;3.08;;
14520;SDS011;7347;50.844;4.490;2023-04-05T07:56:12;6.93;;;3.38;;
14520;SDS011;7347;50.844;4.490;2023-04-05T07:58:41;5.30;;;3.30;;
14520;SDS011;7347;50.844;4.490;2023-04-05T08:01:09;6.80;;;3.55;;
14520;SDS011;7347;50.844;4.490;2023-04-05T08:03:36;6.72;;;3.65;;
14520;SDS011;7347;50.844;4.490;2023-04-05T08:06:10;6.07;;;3.53;;
14520;SDS011;7347;50.844;4.490;2023-04-05T08:08:38;6.47;;;3.42;;
14520;SDS011;7347;50.844;4.490;2023-04-05T08:11:05;4.80;;;3.08;;
14520;SDS011;7347;50.844;4.490;2023-04-05T08:13:32;6.28;;;3.28;;
14520;SDS011;7347;50.844;4.490;2023-04-05T08:16:02;5.65;;;3.25;;
14520;SDS011;7347;50.844;4.490;2023-04-05T08:18:28;5.65;;;3.42;;
14520;SDS011;7347;50.844;4.490;2023-04-05T08:20:55;6.80;;;3.28;;
14520;SDS011;7347;50.844;4.490;2023-04-05T08:23:23;6.22;;;3.35;;
14520;SDS011;7347;50.844;4.490;2023-04-05T08:25:50;5.80;;;3.05;;
14520;SDS011;7347;50.844;4.490;2023-04-05T08:28:16;9.23;;;4.50;;
14520;SDS011;7347;50.844;4.490;2023-04-05T08:30:43;4.60;;;2.90;;
14520;SDS011;7347;50.844;4.490;2023-04-05T08:33:12;7.88;;;3.90;;
14520;SDS011;7347;50.844;4.490;2023-04-05T08:35:39;7.63;;;4.20;;
14520;SDS011;7347;50.844;4.490;2023-04-05T08:38:07;6.68;;;3.25;;
14520;SDS011;7347;50.844;4.490;2023-04-05T08:40:38;4.88;;;2.85;;
14520;SDS011;7347;50.844;4.490;2023-04-05T08:43:07;5.45;;;2.75;;
14520;SDS011;7347;50.844;4.490;2023-04-05T08:45:39;4.15;;;2.30;;
14520;SDS011;7347;50.844;4.490;2023-04-05T08:48:13;6.63;;;2.22;;
14520;SDS011;7347;50.844;4.490;2023-04-05T08:50:41;4.72;;;2.58;;
14520;SDS011;7347;50.844;4.490;2023-04-05T08:53:08;4.90;;;2.42;;
14520;SDS011;7347;50.844;4.490;2023-04-05T08:55:35;5.28;;;2.65;;
14520;SDS011;7347;50.844;4.490;2023-04-05T08:58:02;4.22;;;2.35;;
14520;SDS011;7347;50.844;4.490;2023-04-05T09:00:33;4.28;;;2.60;;
14520;SDS011;7347;50.844;4.490;2023-04-05T09:03:00;4.57;;;2.70;;
14520;SDS011;7347;50.844;4.490;2023-04-05T09:05:29;5.15;;;2.67;;
14520;SDS011;7347;50.844;4.490;2023-04-05T09:07:57;5.00;;;2.70;;
14520;SDS011;7347;50.844;4.490;2023-04-05T09:10:24;5.28;;;2.70;;
14520;SDS011;7347;50.844;4.490;2023-04-05T09:12:53;4.03;;;2.45;;
14520;SDS011;7347;50.844;4.490;2023-04-05T09:15:20;4.70;;;2.72;;
14520;SDS011;7347;50.844;4.490;2023-04-05T09:17:48;5.60;;;2.70;;
14520;SDS011;7347;50.844;4.490;2023-04-05T09:20:16;6.07;;;2.93;;
14520;SDS011;7347;50.844;4.490;2023-04-05T09:22:44;5.50;;;2.80;;
14520;SDS011;7347;50.844;4.490;2023-04-05T09:25:12;5.67;;;3.10;;
14520;SDS011;7347;50.844;4.490;2023-04-05T09:27:59;6.67;;;3.00;;
14520;SDS011;7347;50.844;4.490;2023-04-05T09:30:27;6.40;;;3.07;;
14520;SDS011;7347;50.844;4.490;2023-04-05T09:32:54;6.13;;;2.93;;
14520;SDS011;7347;50.844;4.490;2023-04-05T09:35:21;7.87;;;3.13;;
14520;SDS011;7347;50.844;4.490;2023-04-05T09:37:51;4.47;;;2.40;;
14520;SDS011;7347;50.844;4.490;2023-04-05T09:40:19;7.67;;;3.00;;
14520;SDS011;7347;50.844;4.490;2023-04-05T09:42:47;6.87;;;2.83;;
14520;SDS011;7347;50.844;4.490;2023-04-05T09:45:15;5.83;;;2.93;;
14520;SDS011;7347;50.844;4.490;2023-04-05T09:47:50;6.23;;;2.80;;
14520;SDS011;7347;50.844;4.490;2023-04-05T09:50:20;4.40;;;2.60;;
14520;SDS011;7347;50.844;4.490;2023-04-05T09:52:47;3.73;;;2.43;;
14520;SDS011;7347;50.844;4.490;2023-04-05T09:55:26;6.03;;;2.90;;
14520;SDS011;7347;50.844;4.490;2023-04-05T09:57:53;7.27;;;2.87;;
14520;SDS011;7347;50.844;4.490;2023-04-05T10:00:20;6.13;;;2.90;;
14520;SDS011;7347;50.844;4.490;2023-04-05T10:02:51;6.07;;;2.53;;
14520;SDS011;7347;50.844;4.490;2023-04-05T10:05:18;6.93;;;2.80;;
14520;SDS011;7347;50.844;4.490;2023-04-05T10:07:49;5.70;;;2.70;;
14520;SDS011;7347;50.844;4.490;2023-04-05T10:10:17;8.17;;;2.80;;
14520;SDS011;7347;50.844;4.490;2023-04-05T10:12:45;4.93;;;2.70;;
14520;SDS011;7347;50.844;4.490;2023-04-05T10:15:13;5.00;;;2.73;;
14520;SDS011;7347;50.844;4.490;2023-04-05T10:17:44;4.83;;;2.50;;
14520;SDS011;7347;50.844;4.490;2023-04-05T10:20:17;4.67;;;2.77;;
14520;SDS011;7347;50.844;4.490;2023-04-05T10:22:52;4.53;;;2.60;;
14520;SDS011;7347;50.844;4.490;2023-04-05T10:25:25;5.97;;;2.80;;
14520;SDS011;7347;50.844;4.490;2023-04-05T10:28:01;5.57;;;2.80;;
14520;SDS011;7347;50.844;4.490;2023-04-05T10:30:33;5.20;;;2.50;;
14520;SDS011;7347;50.844;4.490;2023-04-05T10:33:05;7.07;;;3.00;;
14520;SDS011;7347;50.844;4.490;2023-04-05T10:35:43;5.07;;;2.60;;
14520;SDS011;7347;50.844;4.490;2023-04-05T10:38:21;6.53;;;2.70;;
14520;SDS011;7347;50.844;4.490;2023-04-05T10:43:22;5.37;;;2.60;;
14520;SDS011;7347;50.844;4.490;2023-04-05T10:45:51;6.43;;;2.57;;
14520;SDS011;7347;50.844;4.490;2023-04-05T10:48:20;5.50;;;3.20;;
14520;SDS011;7347;50.844;4.490;2023-04-05T10:50:57;5.90;;;2.90;;
14520;SDS011;7347;50.844;4.490;2023-04-05T10:53:25;5.33;;;2.67;;
14520;SDS011;7347;50.844;4.490;2023-04-05T10:55:52;4.57;;;2.63;;
14520;SDS011;7347;50.844;4.490;2023-04-05T10:58:24;6.73;;;2.93;;
14520;SDS011;7347;50.844;4.490;2023-04-05T11:00:51;6.50;;;2.73;;
14520;SDS011;7347;50.844;4.490;2023-04-05T11:06:19;6.60;;;2.97;;
14520;SDS011;7347;50.844;4.490;2023-04-05T11:08:47;6.77;;;2.93;;
14520;SDS011;7347;50.844;4.490;2023-04-05T11:11:17;5.57;;;2.87;;
14520;SDS011;7347;50.844;4.490;2023-04-05T11:13:49;5.40;;;2.97;;
14520;SDS011;7347;50.844;4.490;2023-04-05T11:16:17;5.10;;;3.27;;
14520;SDS011;7347;50.844;4.490;2023-04-05T11:18:45;6.03;;;3.23;;
14520;SDS011;7347;50.844;4.490;2023-04-05T11:21:18;6.30;;;2.87;;
14520;SDS011;7347;50.844;4.490;2023-04-05T11:24:04;5.63;;;3.03;;
14520;SDS011;7347;50.844;4.490;2023-04-05T11:26:33;8.07;;;3.30;;
14520;SDS011;7347;50.844;4.490;2023-04-05T11:32:14;4.47;;;2.80;;
14520;SDS011;7347;50.844;4.490;2023-04-05T11:34:41;4.43;;;2.60;;
14520;SDS011;7347;50.844;4.490;2023-04-05T11:37:09;5.63;;;2.90;;
14520;SDS011;7347;50.844;4.490;2023-04-05T11:39:36;4.37;;;2.77;;
14520;SDS011;7347;50.844;4.490;2023-04-05T11:42:03;6.07;;;2.90;;
14520;SDS011;7347;50.844;4.490;2023-04-05T11:44:40;5.73;;;3.10;;
14520;SDS011;7347;50.844;4.490;2023-04-05T11:47:10;5.13;;;2.50;;
14520;SDS011;7347;50.844;4.490;2023-04-05T11:49:38;6.87;;;3.10;;
14520;SDS011;7347;50.844;4.490;2023-04-05T11:52:09;7.90;;;2.67;;
14520;SDS011;7347;50.844;4.490;2023-04-05T11:54:37;5.87;;;2.77;;
14520;SDS011;7347;50.844;4.490;2023-04-05T11:57:10;7.77;;;2.77;;
14520;SDS011;7347;50.844;4.490;2023-04-05T11:59:39;6.90;;;3.10;;
14520;SDS011;7347;50.844;4.490;2023-04-05T12:02:05;6.10;;;2.90;;
14520;SDS011;7347;50.844;4.490;2023-04-05T12:04:34;5.80;;;3.10;;
14520;SDS011;7347;50.844;4.490;2023-04-05T12:07:11;4.73;;;2.97;;
14520;SDS011;7347;50.844;4.490;2023-04-05T12:10:01;7.03;;;3.20;;
14520;SDS011;7347;50.844;4.490;2023-04-05T12:12:34;7.33;;;2.97;;
14520;SDS011;7347;50.844;4.490;2023-04-05T12:15:02;6.13;;;3.03;;
14520;SDS011;7347;50.844;4.490;2023-04-05T12:17:39;6.77;;;3.27;;
14520;SDS011;7347;50.844;4.490;2023-04-05T12:20:12;6.63;;;3.33;;
14520;SDS011;7347;50.844;4.490;2023-04-05T12:22:41;5.67;;;2.90;;
14520;SDS011;7347;50.844;4.490;2023-04-05T12:25:09;6.43;;;2.70;;
14520;SDS011;7347;50.844;4.490;2023-04-05T12:27:37;5.30;;;2.57;;
14520;SDS011;7347;50.844;4.490;2023-04-05T12:30:05;5.53;;;2.80;;
14520;SDS011;7347;50.844;4.490;2023-04-05T12:32:39;5.33;;;2.83;;
14520;SDS011;7347;50.844;4.490;2023-04-05T12:35:09;6.97;;;3.20;;
14520;SDS011;7347;50.844;4.490;2023-04-05T12:37:38;6.17;;;2.47;;
14520;SDS011;7347;50.844;4.490;2023-04-05T12:40:06;7.40;;;2.73;;
14520;SDS011;7347;50.844;4.490;2023-04-05T12:42:34;5.73;;;2.80;;
14520;SDS011;7347;50.844;4.490;2023-04-05T12:45:02;5.07;;;2.90;;
14520;SDS011;7347;50.844;4.490;2023-04-05T12:47:34;6.87;;;3.33;;
14520;SDS011;7347;50.844;4.490;2023-04-05T12:50:12;6.37;;;2.70;;
14520;SDS011;7347;50.844;4.490;2023-04-05T12:52:50;5.90;;;2.90;;
14520;SDS011;7347;50.844;4.490;2023-04-05T12:55:21;5.33;;;2.83;;
14520;SDS011;7347;50.844;4.490;2023-04-05T12:57:49;5.80;;;2.93;;
14520;SDS011;7347;50.844;4.490;2023-04-05T13:00:17;4.87;;;3.00;;
14520;SDS011;7347;50.844;4.490;2023-04-05T13:02:48;6.27;;;3.00;;
14520;SDS011;7347;50.844;4.490;2023-04-05T13:05:18;6.13;;;2.77;;
14520;SDS011;7347;50.844;4.490;2023-04-05T13:07:46;6.03;;;3.07;;
14520;SDS011;7347;50.844;4.490;2023-04-05T13:10:13;6.83;;;2.83;;
14520;SDS011;7347;50.844;4.490;2023-04-05T13:12:40;5.47;;;2.77;;
14520;SDS011;7347;50.844;4.490;2023-04-05T13:15:08;5.73;;;2.70;;
14520;SDS011;7347;50.844;4.490;2023-04-05T13:17:35;5.07;;;2.57;;
14520;SDS011;7347;50.844;4.490;2023-04-05T13:20:02;6.93;;;3.13;;
14520;SDS011;7347;50.844;4.490;2023-04-05T13:22:31;5.73;;;2.97;;
14520;SDS011;7347;50.844;4.490;2023-04-05T13:24:58;6.07;;;3.00;;
14520;SDS011;7347;50.844;4.490;2023-04-05T13:27:24;8.60;;;3.57;;
14520;SDS011;7347;50.844;4.490;2023-04-05T13:29:51;5.57;;;2.87;;
14520;SDS011;7347;50.844;4.490;2023-04-05T13:32:18;5.70;;;3.20;;
14520;SDS011;7347;50.844;4.490;2023-04-05T13:34:45;5.53;;;2.93;;
14520;SDS011;7347;50.844;4.490;2023-04-05T13:37:12;6.83;;;3.03;;
14520;SDS011;7347;50.844;4.490;2023-04-05T13:39:40;7.30;;;3.30;;
14520;SDS011;7347;50.844;4.490;2023-04-05T13:42:07;8.67;;;3.83;;
14520;SDS011;7347;50.844;4.490;2023-04-05T13:44:34;6.20;;;2.70;;
14520;SDS011;7347;50.844;4.490;2023-04-05T13:47:02;7.73;;;3.27;;
14520;SDS011;7347;50.844;4.490;2023-04-05T13:49:29;5.73;;;3.07;;
14520;SDS011;7347;50.844;4.490;2023-04-05T13:51:55;6.67;;;3.20;;
14520;SDS011;7347;50.844;4.490;2023-04-05T13:54:22;9.00;;;3.50;;
14520;SDS011;7347;50.844;4.490;2023-04-05T13:56:50;10.00;;;3.60;;
14520;SDS011;7347;50.844;4.490;2023-04-05T13:59:17;7.00;;;3.33;;
14520;SDS011;7347;50.844;4.490;2023-04-05T14:01:44;7.20;;;3.03;;
14520;SDS011;7347;50.844;4.490;2023-04-05T14:04:11;6.63;;;3.30;;
14520;SDS011;7347;50.844;4.490;2023-04-05T14:06:38;5.37;;;3.10;;
14520;SDS011;7347;50.844;4.490;2023-04-05T14:09:04;7.33;;;3.53;;
14520;SDS011;7347;50.844;4.490;2023-04-05T14:11:32;6.87;;;3.07;;
14520;SDS011;7347;50.844;4.490;2023-04-05T14:14:01;6.20;;;3.03;;
14520;SDS011;7347;50.844;4.490;2023-04-05T14:16:28;5.13;;;2.93;;
14520;SDS011;7347;50.844;4.490;2023-04-05T14:18:55;9.43;;;3.67;;
14520;SDS011;7347;50.844;4.490;2023-04-05T14:21:23;7.67;;;2.90;;
14520;SDS011;7347;50.844;4.490;2023-04-05T14:23:50;8.37;;;3.40;;
14520;SDS011;7347;50.844;4.490;2023-04-05T14:26:21;6.83;;;3.50;;
14520;SDS011;7347;50.844;4.490;2023-04-05T14:28:48;7.70;;;3.20;;
14520;SDS011;7347;50.844;4.490;2023-04-05T14:31:17;8.47;;;3.40;;
14520;SDS011;7347;50.844;4.490;2023-04-05T14:33:44;6.10;;;3.17;;
14520;SDS011;7347;50.844;4.490;2023-04-05T14:36:11;6.13;;;3.20;;
14520;SDS011;7347;50.844;4.490;2023-04-05T14:38:38;7.90;;;3.90;;
14520;SDS011;7347;50.844;4.490;2023-04-05T14:41:04;6.60;;;3.13;;
14520;SDS011;7347;50.844;4.490;2023-04-05T14:43:32;7.67;;;3.57;;
14520;SDS011;7347;50.844;4.490;2023-04-05T14:45:59;8.20;;;3.60;;
14520;SDS011;7347;50.844;4.490;2023-04-05T14:48:27;6.63;;;3.47;;
14520;SDS011;7347;50.844;4.490;2023-04-05T14:50:56;7.30;;;3.97;;
14520;SDS011;7347;50.844;4.490;2023-04-05T14:53:23;8.03;;;4.20;;
14520;SDS011;7347;50.844;4.490;2023-04-05T14:55:50;9.07;;;3.90;;
14520;SDS011;7347;50.844;4.490;2023-04-05T14:58:17;8.10;;;3.73;;
14520;SDS011;7347;50.844;4.490;2023-04-05T15:00:44;7.00;;;3.63;;
14520;SDS011;7347;50.844;4.490;2023-04-05T15:03:13;8.13;;;3.80;;
14520;SDS011;7347;50.844;4.490;2023-04-05T15:05:41;10.13;;;3.60;;
14520;SDS011;7347;50.844;4.490;2023-04-05T15:08:08;7.40;;;3.50;;
14520;SDS011;7347;50.844;4.490;2023-04-05T15:10:35;9.27;;;3.83;;
14520;SDS011;7347;50.844;4.490;2023-04-05T15:13:03;7.67;;;3.67;;
14520;SDS011;7347;50.844;4.490;2023-04-05T15:15:30;10.00;;;4.23;;
14520;SDS011;7347;50.844;4.490;2023-04-05T15:17:57;7.10;;;3.70;;
14520;SDS011;7347;50.844;4.490;2023-04-05T15:20:24;6.43;;;3.10;;
14520;SDS011;7347;50.844;4.490;2023-04-05T15:22:53;7.90;;;3.80;;
14520;SDS011;7347;50.844;4.490;2023-04-05T15:25:20;7.23;;;3.70;;
14520;SDS011;7347;50.844;4.490;2023-04-05T15:27:47;5.87;;;3.20;;
14520;SDS011;7347;50.844;4.490;2023-04-05T15:30:15;8.77;;;3.40;;
14520;SDS011;7347;50.844;4.490;2023-04-05T15:32:42;7.27;;;3.50;;
14520;SDS011;7347;50.844;4.490;2023-04-05T15:35:09;6.63;;;3.47;;
14520;SDS011;7347;50.844;4.490;2023-04-05T15:37:36;5.57;;;3.10;;
14520;SDS011;7347;50.844;4.490;2023-04-05T15:40:05;7.10;;;3.60;;
14520;SDS011;7347;50.844;4.490;2023-04-05T15:42:33;8.67;;;3.53;;
14520;SDS011;7347;50.844;4.490;2023-04-05T15:45:00;7.60;;;3.20;;
14520;SDS011;7347;50.844;4.490;2023-04-05T15:47:27;7.73;;;3.67;;
14520;SDS011;7347;50.844;4.490;2023-04-05T15:49:54;6.53;;;3.17;;
14520;SDS011;7347;50.844;4.490;2023-04-05T15:52:20;8.47;;;3.40;;
14520;SDS011;7347;50.844;4.490;2023-04-05T15:54:47;10.00;;;3.73;;
14520;SDS011;7347;50.844;4.490;2023-04-05T15:57:16;7.67;;;3.67;;
14520;SDS011;7347;50.844;4.490;2023-04-05T15:59:43;6.80;;;2.80;;
14520;SDS011;7347;50.844;4.490;2023-04-05T16:02:10;7.00;;;3.33;;
14520;SDS011;7347;50.844;4.490;2023-04-05T16:04:37;6.10;;;3.07;;
14520;SDS011;7347;50.844;4.490;2023-04-05T16:07:04;7.37;;;3.93;;
14520;SDS011;7347;50.844;4.490;2023-04-05T16:09:31;11.27;;;4.47;;
14520;SDS011;7347;50.844;4.490;2023-04-05T16:11:58;7.57;;;3.73;;
14520;SDS011;7347;50.844;4.490;2023-04-05T16:14:27;7.80;;;3.23;;
14520;SDS011;7347;50.844;4.490;2023-04-05T16:16:54;7.00;;;3.33;;
14520;SDS011;7347;50.844;4.490;2023-04-05T16:19:21;5.40;;;3.00;;
14520;SDS011;7347;50.844;4.490;2023-04-05T16:21:49;6.80;;;3.10;;
14520;SDS011;7347;50.844;4.490;2023-04-05T16:24:16;7.17;;;3.30;;
14520;SDS011;7347;50.844;4.490;2023-04-05T16:26:44;7.40;;;3.57;;
14520;SDS011;7347;50.844;4.490;2023-04-05T16:29:11;13.43;;;3.60;;
14520;SDS011;7347;50.844;4.490;2023-04-05T16:31:39;8.43;;;3.70;;
14520;SDS011;7347;50.844;4.490;2023-04-05T16:34:11;7.10;;;3.43;;
14520;SDS011;7347;50.844;4.490;2023-04-05T16:36:38;8.60;;;3.67;;
14520;SDS011;7347;50.844;4.490;2023-04-05T16:39:05;9.70;;;3.33;;
14520;SDS011;7347;50.844;4.490;2023-04-05T16:41:34;12.37;;;4.17;;
14520;SDS011;7347;50.844;4.490;2023-04-05T16:44:01;7.70;;;3.53;;
14520;SDS011;7347;50.844;4.490;2023-04-05T16:46:28;7.90;;;3.23;;
14520;SDS011;7347;50.844;4.490;2023-04-05T16:48:57;7.53;;;3.60;;
14520;SDS011;7347;50.844;4.490;2023-04-05T16:51:24;9.80;;;3.43;;
14520;SDS011;7347;50.844;4.490;2023-04-05T16:53:51;9.37;;;3.83;;
14520;SDS011;7347;50.844;4.490;2023-04-05T16:56:18;10.77;;;3.77;;
14520;SDS011;7347;50.844;4.490;2023-04-05T16:58:46;8.83;;;4.30;;
14520;SDS011;7347;50.844;4.490;2023-04-05T17:01:12;7.97;;;3.73;;
14520;SDS011;7347;50.844;4.490;2023-04-05T17:03:39;7.03;;;3.50;;
14520;SDS011;7347;50.844;4.490;2023-04-05T17:06:12;8.53;;;3.63;;
14520;SDS011;7347;50.844;4.490;2023-04-05T17:08:39;11.53;;;4.00;;
14520;SDS011;7347;50.844;4.490;2023-04-05T17:11:06;9.23;;;3.97;;
14520;SDS011;7347;50.844;4.490;2023-04-05T17:13:33;9.70;;;3.80;;
14520;SDS011;7347;50.844;4.490;2023-04-05T17:15:59;7.80;;;3.40;;
14520;SDS011;7347;50.844;4.490;2023-04-05T17:18:26;7.00;;;3.40;;
14520;SDS011;7347;50.844;4.490;2023-04-05T17:20:53;9.07;;;3.47;;
14520;SDS011;7347;50.844;4.490;2023-04-05T17:23:22;10.37;;;3.80;;
14520;SDS011;7347;50.844;4.490;2023-04-05T17:25:49;6.93;;;3.33;;
14520;SDS011;7347;50.844;4.490;2023-04-05T17:28:16;9.30;;;4.27;;
14520;SDS011;7347;50.844;4.490;2023-04-05T17:30:43;13.17;;;3.97;;
14520;SDS011;7347;50.844;4.490;2023-04-05T17:33:10;7.67;;;3.73;;
14520;SDS011;7347;50.844;4.490;2023-04-05T17:35:37;8.53;;;3.43;;
14520;SDS011;7347;50.844;4.490;2023-04-05T17:38:04;7.83;;;3.57;;
14520;SDS011;7347;50.844;4.490;2023-04-05T17:40:32;8.20;;;3.60;;
14520;SDS011;7347;50.844;4.490;2023-04-05T17:42:59;7.80;;;3.90;;
14520;SDS011;7347;50.844;4.490;2023-04-05T17:45:27;8.37;;;3.50;;
14520;SDS011;7347;50.844;4.490;2023-04-05T17:47:54;7.33;;;3.37;;
14520;SDS011;7347;50.844;4.490;2023-04-05T17:50:21;6.60;;;3.50;;
14520;SDS011;7347;50.844;4.490;2023-04-05T17:52:47;9.27;;;3.77;;
14520;SDS011;7347;50.844;4.490;2023-04-05T17:55:14;9.33;;;3.00;;
14520;SDS011;7347;50.844;4.490;2023-04-05T17:57:43;8.63;;;3.90;;
14520;SDS011;7347;50.844;4.490;2023-04-05T18:00:10;15.43;;;5.33;;
14520;SDS011;7347;50.844;4.490;2023-04-05T18:02:38;15.90;;;5.97;;
14520;SDS011;7347;50.844;4.490;2023-04-05T18:05:05;12.67;;;4.80;;
14520;SDS011;7347;50.844;4.490;2023-04-05T18:07:34;12.17;;;4.07;;
14520;SDS011;7347;50.844;4.490;2023-04-05T18:10:01;8.07;;;3.67;;
14520;SDS011;7347;50.844;4.490;2023-04-05T18:12:29;11.27;;;4.83;;
14520;SDS011;7347;50.844;4.490;2023-04-05T18:14:57;11.20;;;4.33;;
14520;SDS011;7347;50.844;4.490;2023-04-05T18:17:24;10.57;;;3.60;;
14520;SDS011;7347;50.844;4.490;2023-04-05T18:19:52;9.07;;;3.47;;
14520;SDS011;7347;50.844;4.490;2023-04-05T18:22:19;9.33;;;4.73;;
14520;SDS011;7347;50.844;4.490;2023-04-05T18:24:45;9.53;;;3.53;;
14520;SDS011;7347;50.844;4.490;2023-04-05T18:27:12;8.57;;;3.93;;
14520;SDS011;7347;50.844;4.490;2023-04-05T18:29:39;6.77;;;3.27;;
14520;SDS011;7347;50.844;4.490;2023-04-05T18:32:08;7.77;;;3.30;;
14520;SDS011;7347;50.844;4.490;2023-04-05T18:34:35;11.00;;;3.87;;
14520;SDS011;7347;50.844;4.490;2023-04-05T18:37:02;8.43;;;3.53;;
14520;SDS011;7347;50.844;4.490;2023-04-05T18:39:29;11.60;;;3.87;;
14520;SDS011;7347;50.844;4.490;2023-04-05T18:41:56;7.93;;;3.60;;
14520;SDS011;7347;50.844;4.490;2023-04-05T18:44:23;11.13;;;3.83;;
14520;SDS011;7347;50.844;4.490;2023-04-05T18:46:50;10.53;;;4.13;;
14520;SDS011;7347;50.844;4.490;2023-04-05T18:49:19;8.40;;;3.97;;
14520;SDS011;7347;50.844;4.490;2023-04-05T18:51:46;17.00;;;4.80;;
14520;SDS011;7347;50.844;4.490;2023-04-05T18:54:13;12.70;;;5.20;;
14520;SDS011;7347;50.844;4.490;2023-04-05T18:56:42;11.20;;;5.23;;
14520;SDS011;7347;50.844;4.490;2023-04-05T18:59:09;8.80;;;4.17;;
14520;SDS011;7347;50.844;4.490;2023-04-05T19:01:36;7.93;;;3.73;;
14520;SDS011;7347;50.844;4.490;2023-04-05T19:04:03;6.83;;;3.50;;
14520;SDS011;7347;50.844;4.490;2023-04-05T19:06:31;11.97;;;4.20;;
14520;SDS011;7347;50.844;4.490;2023-04-05T19:08:58;10.37;;;4.43;;
14520;SDS011;7347;50.844;4.490;2023-04-05T19:11:25;9.00;;;5.00;;
14520;SDS011;7347;50.844;4.490;2023-04-05T19:13:52;9.13;;;4.73;;
14520;SDS011;7347;50.844;4.490;2023-04-05T19:16:19;8.57;;;4.30;;
14520;SDS011;7347;50.844;4.490;2023-04-05T19:18:46;8.07;;;4.00;;
14520;SDS011;7347;50.844;4.490;2023-04-05T19:21:13;8.63;;;3.90;;
14520;SDS011;7347;50.844;4.490;2023-04-05T19:23:41;10.27;;;3.90;;
14520;SDS011;7347;50.844;4.490;2023-04-05T19:26:08;10.80;;;4.80;;
14520;SDS011;7347;50.844;4.490;2023-04-05T19:28:36;13.27;;;5.07;;
14520;SDS011;7347;50.844;4.490;2023-04-05T19:31:03;12.30;;;4.83;;
14520;SDS011;7347;50.844;4.490;2023-04-05T19:33:30;9.30;;;5.23;;
14520;SDS011;7347;50.844;4.490;2023-04-05T19:35:57;10.50;;;4.97;;
14520;SDS011;7347;50.844;4.490;2023-04-05T19:38:24;11.70;;;5.60;;
14520;SDS011;7347;50.844;4.490;2023-04-05T19:40:53;12.73;;;6.50;;
14520;SDS011;7347;50.844;4.490;2023-04-05T19:43:20;13.20;;;6.60;;
14520;SDS011;7347;50.844;4.490;2023-04-05T19:45:49;13.57;;;5.60;;
14520;SDS011;7347;50.844;4.490;2023-04-05T19:48:34;9.70;;;5.03;;
14520;SDS011;7347;50.844;4.490;2023-04-05T19:51:03;10.27;;;5.20;;
14520;SDS011;7347;50.844;4.490;2023-04-05T19:53:38;12.63;;;5.50;;
14520;SDS011;7347;50.844;4.490;2023-04-05T19:56:09;12.33;;;5.53;;
14520;SDS011;7347;50.844;4.490;2023-04-05T19:58:37;11.73;;;5.57;;
14520;SDS011;7347;50.844;4.490;2023-04-05T20:01:05;14.77;;;6.10;;
14520;SDS011;7347;50.844;4.490;2023-04-05T20:03:33;11.60;;;5.17;;
14520;SDS011;7347;50.844;4.490;2023-04-05T20:06:04;11.53;;;4.83;;
14520;SDS011;7347;50.844;4.490;2023-04-05T20:08:36;12.23;;;5.87;;
14520;SDS011;7347;50.844;4.490;2023-04-05T20:11:05;10.50;;;5.03;;
14520;SDS011;7347;50.844;4.490;2023-04-05T20:13:39;7.97;;;4.57;;
14520;SDS011;7347;50.844;4.490;2023-04-05T20:16:11;8.43;;;4.43;;
14520;SDS011;7347;50.844;4.490;2023-04-05T20:18:40;10.77;;;4.10;;
14520;SDS011;7347;50.844;4.490;2023-04-05T20:21:10;11.07;;;4.97;;
14520;SDS011;7347;50.844;4.490;2023-04-05T20:23:38;10.07;;;4.93;;
14520;SDS011;7347;50.844;4.490;2023-04-05T20:26:07;14.10;;;4.83;;
14520;SDS011;7347;50.844;4.490;2023-04-05T20:28:39;8.03;;;4.87;;
14520;SDS011;7347;50.844;4.490;2023-04-05T20:31:07;9.17;;;4.77;;
14520;SDS011;7347;50.844;4.490;2023-04-05T20:33:46;8.00;;;4.17;;
14520;SDS011;7347;50.844;4.490;2023-04-05T20:36:15;10.87;;;5.57;;
14520;SDS011;7347;50.844;4.490;2023-04-05T20:38:44;12.30;;;5.80;;
14520;SDS011;7347;50.844;4.490;2023-04-05T20:41:12;10.20;;;5.10;;
14520;SDS011;7347;50.844;4.490;2023-04-05T20:43:42;10.00;;;5.30;;
14520;SDS011;7347;50.844;4.490;2023-04-05T20:46:10;10.20;;;4.80;;
14520;SDS011;7347;50.844;4.490;2023-04-05T20:48:37;10.97;;;4.60;;
14520;SDS011;7347;50.844;4.490;2023-04-05T20:51:05;6.83;;;3.77;;
14520;SDS011;7347;50.844;4.490;2023-04-05T20:53:33;8.00;;;4.13;;
14520;SDS011;7347;50.844;4.490;2023-04-05T20:56:02;9.47;;;4.00;;
14520;SDS011;7347;50.844;4.490;2023-04-05T20:58:30;9.27;;;4.20;;
14520;SDS011;7347;50.844;4.490;2023-04-05T21:00:58;11.47;;;3.60;;
14520;SDS011;7347;50.844;4.490;2023-04-05T21:03:27;11.93;;;5.63;;
14520;SDS011;7347;50.844;4.490;2023-04-05T21:05:55;7.73;;;4.60;;
14520;SDS011;7347;50.844;4.490;2023-04-05T21:08:22;9.70;;;5.13;;
14520;SDS011;7347;50.844;4.490;2023-04-05T21:10:49;8.97;;;3.63;;
14520;SDS011;7347;50.844;4.490;2023-04-05T21:13:17;8.17;;;4.00;;
14520;SDS011;7347;50.844;4.490;2023-04-05T21:15:44;8.73;;;4.20;;
14520;SDS011;7347;50.844;4.490;2023-04-05T21:18:13;6.87;;;3.87;;
14520;SDS011;7347;50.844;4.490;2023-04-05T21:20:40;6.07;;;3.90;;
14520;SDS011;7347;50.844;4.490;2023-04-05T21:23:14;7.63;;;3.97;;
14520;SDS011;7347;50.844;4.490;2023-04-05T21:25:42;10.10;;;3.97;;
14520;SDS011;7347;50.844;4.490;2023-04-05T21:28:09;9.30;;;4.50;;
14520;SDS011;7347;50.844;4.490;2023-04-05T21:30:36;7.60;;;4.17;;
